Little Rock Air Force Base, Arkansas
Current Conditions -  °F | °C
As of 12:58 PM on Saturday 20 Dec 2014 (Local Time) from KLRF Reporting Station
Overcast Overcast  
Wind Chill: 46°   Ceiling: 5000
Heat Index: 46°   Visibility: 10mi
Dew Point: 36°   Wind: 1mph
Humidity: 69%   Direction: 10°N
Pressure: 30.24"   Gusts: NA
Location:  34.9074°N, 92.1397°W
Report Text: KLRF 201858Z AUTO 01001KT 10SM FEW037 OVC050 08/02 A3024 RMK AO2 SLP245 T00760022
Loading
Personal Weather Stations






























Interactive Weather Map New forecast layout! Learn more

10-Day Weather Forecast

Advertisements
Track Severe Weather on mobile